sensor_id;sensor_type;location;lat;lon;timestamp;pressure;altitude;pressure_sealevel;temperature;humidity
47522;BME280;32291;52.010;4.446;2022-07-15T00:00:23;78698.63;;;-144.67;76.08
47522;BME280;32291;52.010;4.446;2022-07-15T00:01:25;78694.34;;;-144.67;76.24
47522;BME280;32291;52.010;4.446;2022-07-15T00:02:30;78694.34;;;-144.67;76.18
47522;BME280;32291;52.010;4.446;2022-07-15T00:03:32;78694.34;;;-144.67;76.13
47522;BME280;32291;52.010;4.446;2022-07-15T00:04:35;78698.63;;;-144.67;76.17
47522;BME280;32291;52.010;4.446;2022-07-15T00:05:38;78698.63;;;-144.67;76.11
47522;BME280;32291;52.010;4.446;2022-07-15T00:06:40;78698.63;;;-144.67;76.10
47522;BME280;32291;52.010;4.446;2022-07-15T00:07:42;78702.91;;;-144.67;76.11
47522;BME280;32291;52.010;4.446;2022-07-15T00:08:44;78694.34;;;-144.67;76.30
47522;BME280;32291;52.010;4.446;2022-07-15T00:09:46;78702.91;;;-144.67;76.09
47522;BME280;32291;52.010;4.446;2022-07-15T00:11:06;78700.75;;;-144.67;76.01
47522;BME280;32291;52.010;4.446;2022-07-15T00:12:09;78705.03;;;-144.67;76.08
47522;BME280;32291;52.010;4.446;2022-07-15T00:13:11;78709.31;;;-144.67;75.79
47522;BME280;32291;52.010;4.446;2022-07-15T00:14:13;78705.03;;;-144.67;76.06
47522;BME280;32291;52.010;4.446;2022-07-15T00:15:19;78711.47;;;-144.67;75.96
47522;BME280;32291;52.010;4.446;2022-07-15T00:16:23;78711.47;;;-144.67;76.14
47522;BME280;32291;52.010;4.446;2022-07-15T00:17:25;78707.19;;;-144.67;76.08
47522;BME280;32291;52.010;4.446;2022-07-15T00:18:28;78709.31;;;-144.67;75.77
47522;BME280;32291;52.010;4.446;2022-07-15T00:19:30;78711.47;;;-144.67;75.83
47522;BME280;32291;52.010;4.446;2022-07-15T00:20:33;78711.47;;;-144.67;75.90
47522;BME280;32291;52.010;4.446;2022-07-15T00:21:35;78713.63;;;-144.67;75.82
47522;BME280;32291;52.010;4.446;2022-07-15T00:22:38;78713.63;;;-144.67;75.76
47522;BME280;32291;52.010;4.446;2022-07-15T00:23:41;78717.91;;;-144.67;75.78
47522;BME280;32291;52.010;4.446;2022-07-15T00:24:43;78724.31;;;-144.67;75.75
47522;BME280;32291;52.010;4.446;2022-07-15T00:25:45;78724.31;;;-144.67;75.86
47522;BME280;32291;52.010;4.446;2022-07-15T00:26:47;78724.31;;;-144.67;75.97
47522;BME280;32291;52.010;4.446;2022-07-15T00:28:04;78728.59;;;-144.67;76.03
47522;BME280;32291;52.010;4.446;2022-07-15T00:29:07;78730.75;;;-144.67;76.22
47522;BME280;32291;52.010;4.446;2022-07-15T00:30:09;78735.03;;;-144.67;76.24
47522;BME280;32291;52.010;4.446;2022-07-15T00:31:11;78732.88;;;-144.67;76.28
47522;BME280;32291;52.010;4.446;2022-07-15T00:32:14;78730.75;;;-144.67;76.54
47522;BME280;32291;52.010;4.446;2022-07-15T00:33:16;78737.16;;;-144.67;76.42
47522;BME280;32291;52.010;4.446;2022-07-15T00:34:18;78732.88;;;-144.67;76.66
47522;BME280;32291;52.010;4.446;2022-07-15T00:35:20;78732.88;;;-144.67;76.82
47522;BME280;32291;52.010;4.446;2022-07-15T00:36:22;78730.75;;;-144.67;76.90
47522;BME280;32291;52.010;4.446;2022-07-15T00:37:24;78730.75;;;-144.67;76.86
47522;BME280;32291;52.010;4.446;2022-07-15T00:38:26;78730.75;;;-144.67;77.24
47522;BME280;32291;52.010;4.446;2022-07-15T00:39:28;78730.75;;;-144.67;77.26
47522;BME280;32291;52.010;4.446;2022-07-15T00:40:30;78728.59;;;-144.67;77.28
47522;BME280;32291;52.010;4.446;2022-07-15T00:41:40;78726.47;;;-144.67;77.38
47522;BME280;32291;52.010;4.446;2022-07-15T00:42:44;78728.59;;;-144.67;77.39
47522;BME280;32291;52.010;4.446;2022-07-15T00:43:47;78732.88;;;-144.67;77.58
47522;BME280;32291;52.010;4.446;2022-07-15T00:44:49;78728.59;;;-144.67;77.57
47522;BME280;32291;52.010;4.446;2022-07-15T00:45:52;78732.88;;;-144.67;77.69
47522;BME280;32291;52.010;4.446;2022-07-15T00:46:55;78735.03;;;-144.67;77.92
47522;BME280;32291;52.010;4.446;2022-07-15T00:47:57;78732.88;;;-144.67;77.98
47522;BME280;32291;52.010;4.446;2022-07-15T00:49:02;78728.59;;;-144.67;77.75
47522;BME280;32291;52.010;4.446;2022-07-15T00:50:05;78735.03;;;-144.67;77.98
47522;BME280;32291;52.010;4.446;2022-07-15T00:51:08;78737.16;;;-144.67;77.97
47522;BME280;32291;52.010;4.446;2022-07-15T00:52:10;78732.88;;;-144.67;78.09
47522;BME280;32291;52.010;4.446;2022-07-15T00:53:21;78728.59;;;-144.67;78.28
47522;BME280;32291;52.010;4.446;2022-07-15T00:54:26;78732.88;;;-144.67;78.33
47522;BME280;32291;52.010;4.446;2022-07-15T00:55:31;78739.31;;;-144.67;78.12
47522;BME280;32291;52.010;4.446;2022-07-15T00:56:55;78743.59;;;-144.67;78.09
47522;BME280;32291;52.010;4.446;2022-07-15T00:58:02;78747.88;;;-144.67;78.23
47522;BME280;32291;52.010;4.446;2022-07-15T00:59:06;78750.00;;;-144.67;78.61
47522;BME280;32291;52.010;4.446;2022-07-15T01:00:10;78747.88;;;-144.67;78.56
47522;BME280;32291;52.010;4.446;2022-07-15T01:01:18;78739.31;;;-144.67;78.71
47522;BME280;32291;52.010;4.446;2022-07-15T01:02:22;78750.00;;;-144.67;78.74
47522;BME280;32291;52.010;4.446;2022-07-15T01:03:27;78745.72;;;-144.67;78.83
47522;BME280;32291;52.010;4.446;2022-07-15T01:04:33;78754.28;;;-144.67;79.13
47522;BME280;32291;52.010;4.446;2022-07-15T01:05:37;78754.28;;;-144.67;79.10
47522;BME280;32291;52.010;4.446;2022-07-15T01:06:39;78756.44;;;-144.67;79.10
47522;BME280;32291;52.010;4.446;2022-07-15T01:07:42;78754.28;;;-144.67;79.17
47522;BME280;32291;52.010;4.446;2022-07-15T01:08:44;78762.84;;;-144.67;79.01
47522;BME280;32291;52.010;4.446;2022-07-15T01:09:46;78762.84;;;-144.67;79.26
47522;BME280;32291;52.010;4.446;2022-07-15T01:10:50;78758.56;;;-144.67;79.28
47522;BME280;32291;52.010;4.446;2022-07-15T01:11:53;78767.16;;;-144.67;79.24
47522;BME280;32291;52.010;4.446;2022-07-15T01:12:55;78767.16;;;-144.67;79.47
47522;BME280;32291;52.010;4.446;2022-07-15T01:13:59;78765.00;;;-144.67;79.52
47522;BME280;32291;52.010;4.446;2022-07-15T01:15:01;78765.00;;;-144.67;79.47
47522;BME280;32291;52.010;4.446;2022-07-15T01:16:04;78765.00;;;-144.67;79.59
47522;BME280;32291;52.010;4.446;2022-07-15T01:17:10;78767.16;;;-144.67;79.68
47522;BME280;32291;52.010;4.446;2022-07-15T01:18:13;78767.16;;;-144.67;79.62
47522;BME280;32291;52.010;4.446;2022-07-15T01:19:14;78767.16;;;-144.67;79.74
47522;BME280;32291;52.010;4.446;2022-07-15T01:20:16;78767.16;;;-144.67;79.94
47522;BME280;32291;52.010;4.446;2022-07-15T01:21:19;78771.44;;;-144.67;80.09
47522;BME280;32291;52.010;4.446;2022-07-15T01:22:21;78760.72;;;-144.67;80.26
47522;BME280;32291;52.010;4.446;2022-07-15T01:23:23;78767.16;;;-144.67;80.40
47522;BME280;32291;52.010;4.446;2022-07-15T01:24:26;78771.44;;;-144.67;80.22
47522;BME280;32291;52.010;4.446;2022-07-15T01:25:28;78773.56;;;-144.67;80.29
47522;BME280;32291;52.010;4.446;2022-07-15T01:26:31;78777.84;;;-144.67;80.30
47522;BME280;32291;52.010;4.446;2022-07-15T01:27:33;78775.72;;;-144.67;80.51
47522;BME280;32291;52.010;4.446;2022-07-15T01:28:36;78775.72;;;-144.67;80.37
47522;BME280;32291;52.010;4.446;2022-07-15T01:29:37;78782.13;;;-144.67;80.45
47522;BME280;32291;52.010;4.446;2022-07-15T01:30:40;78775.72;;;-144.67;80.32
47522;BME280;32291;52.010;4.446;2022-07-15T01:31:42;78775.72;;;-144.67;80.42
47522;BME280;32291;52.010;4.446;2022-07-15T01:32:44;78784.28;;;-144.67;80.62
47522;BME280;32291;52.010;4.446;2022-07-15T01:33:46;78780.00;;;-144.67;80.65
47522;BME280;32291;52.010;4.446;2022-07-15T01:34:48;78788.56;;;-144.67;80.77
47522;BME280;32291;52.010;4.446;2022-07-15T01:35:54;78788.56;;;-144.67;80.75
47522;BME280;32291;52.010;4.446;2022-07-15T01:36:57;78784.28;;;-144.67;80.73
47522;BME280;32291;52.010;4.446;2022-07-15T01:37:59;78784.28;;;-144.67;80.82
47522;BME280;32291;52.010;4.446;2022-07-15T01:39:02;78790.69;;;-144.67;81.01
47522;BME280;32291;52.010;4.446;2022-07-15T01:40:06;78784.28;;;-144.67;80.85
47522;BME280;32291;52.010;4.446;2022-07-15T01:41:09;78784.28;;;-144.67;80.99
47522;BME280;32291;52.010;4.446;2022-07-15T01:42:11;78788.56;;;-144.67;81.02
47522;BME280;32291;52.010;4.446;2022-07-15T01:43:14;78788.56;;;-144.67;81.20
47522;BME280;32291;52.010;4.446;2022-07-15T01:44:16;78786.41;;;-144.67;80.97
47522;BME280;32291;52.010;4.446;2022-07-15T01:45:18;78788.56;;;-144.67;81.19
47522;BME280;32291;52.010;4.446;2022-07-15T01:46:20;78788.56;;;-144.67;81.17
47522;BME280;32291;52.010;4.446;2022-07-15T01:47:21;78786.41;;;-144.67;81.04
47522;BME280;32291;52.010;4.446;2022-07-15T01:48:23;78788.56;;;-144.67;81.06
47522;BME280;32291;52.010;4.446;2022-07-15T01:49:44;78790.69;;;-144.67;81.00
47522;BME280;32291;52.010;4.446;2022-07-15T01:50:46;78794.97;;;-144.67;81.00
47522;BME280;32291;52.010;4.446;2022-07-15T01:51:50;78792.84;;;-144.67;80.99
47522;BME280;32291;52.010;4.446;2022-07-15T01:52:53;78788.56;;;-144.67;80.95
47522;BME280;32291;52.010;4.446;2022-07-15T01:53:55;78792.84;;;-144.67;81.00
47522;BME280;32291;52.010;4.446;2022-07-15T01:54:56;78792.84;;;-144.67;80.99
47522;BME280;32291;52.010;4.446;2022-07-15T01:55:59;78797.13;;;-144.67;81.12
47522;BME280;32291;52.010;4.446;2022-07-15T01:57:01;78797.13;;;-144.67;81.26
47522;BME280;32291;52.010;4.446;2022-07-15T01:58:03;78797.13;;;-144.67;81.37
47522;BME280;32291;52.010;4.446;2022-07-15T01:59:06;78794.97;;;-144.67;81.40
47522;BME280;32291;52.010;4.446;2022-07-15T02:00:09;78797.13;;;-144.67;81.45
47522;BME280;32291;52.010;4.446;2022-07-15T02:01:13;78801.41;;;-144.67;81.40
47522;BME280;32291;52.010;4.446;2022-07-15T02:02:15;78807.81;;;-144.67;81.26
47522;BME280;32291;52.010;4.446;2022-07-15T02:03:17;78801.41;;;-144.67;81.43
47522;BME280;32291;52.010;4.446;2022-07-15T02:04:20;78807.81;;;-144.67;81.64
47522;BME280;32291;52.010;4.446;2022-07-15T02:05:22;78809.97;;;-144.67;81.69
47522;BME280;32291;52.010;4.446;2022-07-15T02:06:24;78807.81;;;-144.67;81.63
47522;BME280;32291;52.010;4.446;2022-07-15T02:07:26;78807.81;;;-144.67;81.76
47522;BME280;32291;52.010;4.446;2022-07-15T02:08:28;78812.09;;;-144.67;81.76
47522;BME280;32291;52.010;4.446;2022-07-15T02:09:31;78812.09;;;-144.67;81.70
47522;BME280;32291;52.010;4.446;2022-07-15T02:10:33;78814.25;;;-144.67;82.02
47522;BME280;32291;52.010;4.446;2022-07-15T02:11:42;78809.97;;;-144.67;81.91
47522;BME280;32291;52.010;4.446;2022-07-15T02:12:45;78818.53;;;-144.67;82.05
47522;BME280;32291;52.010;4.446;2022-07-15T02:13:47;78809.97;;;-144.67;82.07
47522;BME280;32291;52.010;4.446;2022-07-15T02:14:49;78818.53;;;-144.67;82.27
47522;BME280;32291;52.010;4.446;2022-07-15T02:15:51;78818.53;;;-144.67;82.08
47522;BME280;32291;52.010;4.446;2022-07-15T02:16:53;78818.53;;;-144.67;82.41
47522;BME280;32291;52.010;4.446;2022-07-15T02:17:55;78818.53;;;-144.67;82.51
47522;BME280;32291;52.010;4.446;2022-07-15T02:18:58;78822.81;;;-144.67;82.87
47522;BME280;32291;52.010;4.446;2022-07-15T02:20:00;78822.81;;;-144.67;82.88
47522;BME280;32291;52.010;4.446;2022-07-15T02:21:02;78824.97;;;-144.67;82.75
47522;BME280;32291;52.010;4.446;2022-07-15T02:22:04;78820.69;;;-144.67;82.70
47522;BME280;32291;52.010;4.446;2022-07-15T02:23:06;78824.97;;;-144.67;82.82
47522;BME280;32291;52.010;4.446;2022-07-15T02:24:08;78820.69;;;-144.67;82.76
47522;BME280;32291;52.010;4.446;2022-07-15T02:25:10;78814.25;;;-144.67;82.95
47522;BME280;32291;52.010;4.446;2022-07-15T02:26:13;78820.69;;;-144.67;82.80
47522;BME280;32291;52.010;4.446;2022-07-15T02:27:16;78822.81;;;-144.67;82.91
47522;BME280;32291;52.010;4.446;2022-07-15T02:28:17;78818.53;;;-144.67;82.75
47522;BME280;32291;52.010;4.446;2022-07-15T02:29:19;78820.69;;;-144.67;82.83
47522;BME280;32291;52.010;4.446;2022-07-15T02:30:24;78824.97;;;-144.67;82.57
47522;BME280;32291;52.010;4.446;2022-07-15T02:31:47;78822.81;;;-144.67;82.43
47522;BME280;32291;52.010;4.446;2022-07-15T02:32:49;78822.81;;;-144.67;82.48
47522;BME280;32291;52.010;4.446;2022-07-15T02:33:51;78827.09;;;-144.67;82.40
47522;BME280;32291;52.010;4.446;2022-07-15T02:34:54;78831.38;;;-144.67;82.27
47522;BME280;32291;52.010;4.446;2022-07-15T02:35:56;78831.38;;;-144.67;82.39
47522;BME280;32291;52.010;4.446;2022-07-15T02:37:01;78831.38;;;-144.67;82.39
47522;BME280;32291;52.010;4.446;2022-07-15T02:38:04;78831.38;;;-144.67;82.44
47522;BME280;32291;52.010;4.446;2022-07-15T02:39:11;78831.38;;;-144.67;82.56
47522;BME280;32291;52.010;4.446;2022-07-15T02:40:14;78827.09;;;-144.67;82.49
47522;BME280;32291;52.010;4.446;2022-07-15T02:41:16;78827.09;;;-144.67;82.46
47522;BME280;32291;52.010;4.446;2022-07-15T02:42:18;78835.66;;;-144.67;82.47
47522;BME280;32291;52.010;4.446;2022-07-15T02:43:20;78835.66;;;-144.67;82.59
47522;BME280;32291;52.010;4.446;2022-07-15T02:44:23;78839.94;;;-144.67;82.58
47522;BME280;32291;52.010;4.446;2022-07-15T02:45:29;78844.22;;;-144.67;82.73
47522;BME280;32291;52.010;4.446;2022-07-15T02:46:32;78844.22;;;-144.67;82.87
47522;BME280;32291;52.010;4.446;2022-07-15T02:47:33;78844.22;;;-144.67;82.91
47522;BME280;32291;52.010;4.446;2022-07-15T02:48:40;78846.38;;;-144.67;82.95
47522;BME280;32291;52.010;4.446;2022-07-15T02:49:42;78852.78;;;-144.67;82.92
47522;BME280;32291;52.010;4.446;2022-07-15T02:50:44;78852.78;;;-144.67;83.03
47522;BME280;32291;52.010;4.446;2022-07-15T02:51:46;78857.06;;;-144.67;83.26
47522;BME280;32291;52.010;4.446;2022-07-15T02:52:48;78865.66;;;-144.67;83.27
47522;BME280;32291;52.010;4.446;2022-07-15T02:53:50;78861.34;;;-144.67;83.18
47522;BME280;32291;52.010;4.446;2022-07-15T02:54:52;78867.78;;;-144.67;82.99
47522;BME280;32291;52.010;4.446;2022-07-15T02:55:58;78869.94;;;-144.67;83.10
47522;BME280;32291;52.010;4.446;2022-07-15T02:57:01;78872.06;;;-144.67;83.21
47522;BME280;32291;52.010;4.446;2022-07-15T02:58:03;78872.06;;;-144.67;83.49
47522;BME280;32291;52.010;4.446;2022-07-15T02:59:05;78872.06;;;-144.67;83.60
47522;BME280;32291;52.010;4.446;2022-07-15T03:00:13;78878.50;;;-144.67;83.76
47522;BME280;32291;52.010;4.446;2022-07-15T03:01:19;78872.06;;;-144.67;83.96
47522;BME280;32291;52.010;4.446;2022-07-15T03:02:22;78876.34;;;-144.67;84.16
47522;BME280;32291;52.010;4.446;2022-07-15T03:03:24;78880.63;;;-144.67;84.27
47522;BME280;32291;52.010;4.446;2022-07-15T03:04:29;78878.50;;;-144.67;84.25
47522;BME280;32291;52.010;4.446;2022-07-15T03:05:31;78878.50;;;-144.67;84.29
47522;BME280;32291;52.010;4.446;2022-07-15T03:06:33;78882.78;;;-144.67;84.41
47522;BME280;32291;52.010;4.446;2022-07-15T03:07:35;78882.78;;;-144.67;84.33
47522;BME280;32291;52.010;4.446;2022-07-15T03:08:38;78884.91;;;-144.67;84.39
47522;BME280;32291;52.010;4.446;2022-07-15T03:09:40;78887.06;;;-144.67;84.62
47522;BME280;32291;52.010;4.446;2022-07-15T03:10:43;78882.78;;;-144.67;84.67
47522;BME280;32291;52.010;4.446;2022-07-15T03:11:45;78887.06;;;-144.67;84.66
47522;BME280;32291;52.010;4.446;2022-07-15T03:12:47;78889.19;;;-144.67;84.82
47522;BME280;32291;52.010;4.446;2022-07-15T03:13:49;78887.06;;;-144.67;84.93
47522;BME280;32291;52.010;4.446;2022-07-15T03:14:51;78887.06;;;-144.67;85.00
47522;BME280;32291;52.010;4.446;2022-07-15T03:15:53;78893.47;;;-144.67;85.30
47522;BME280;32291;52.010;4.446;2022-07-15T03:16:55;78891.34;;;-144.67;85.52
47522;BME280;32291;52.010;4.446;2022-07-15T03:17:57;78897.75;;;-144.67;85.37
47522;BME280;32291;52.010;4.446;2022-07-15T03:18:59;78891.34;;;-144.67;85.48
47522;BME280;32291;52.010;4.446;2022-07-15T03:20:01;78895.63;;;-144.67;85.51
47522;BME280;32291;52.010;4.446;2022-07-15T03:21:03;78899.91;;;-144.67;85.84
47522;BME280;32291;52.010;4.446;2022-07-15T03:22:06;78899.91;;;-144.67;86.38
47522;BME280;32291;52.010;4.446;2022-07-15T03:23:09;78904.19;;;-144.67;86.56
47522;BME280;32291;52.010;4.446;2022-07-15T03:24:11;78904.19;;;-144.67;86.77
47522;BME280;32291;52.010;4.446;2022-07-15T03:25:14;78902.03;;;-144.67;86.97
47522;BME280;32291;52.010;4.446;2022-07-15T03:26:16;78904.19;;;-144.67;87.04
47522;BME280;32291;52.010;4.446;2022-07-15T03:27:18;78904.19;;;-144.67;87.15
47522;BME280;32291;52.010;4.446;2022-07-15T03:28:21;78899.91;;;-144.67;87.18
47522;BME280;32291;52.010;4.446;2022-07-15T03:29:23;78904.19;;;-144.67;87.30
47522;BME280;32291;52.010;4.446;2022-07-15T03:30:24;78904.19;;;-144.67;87.21
47522;BME280;32291;52.010;4.446;2022-07-15T03:31:27;78908.47;;;-144.67;87.20
47522;BME280;32291;52.010;4.446;2022-07-15T03:32:29;78902.03;;;-144.67;87.13
47522;BME280;32291;52.010;4.446;2022-07-15T03:33:31;78902.03;;;-144.67;87.23
47522;BME280;32291;52.010;4.446;2022-07-15T03:34:33;78904.19;;;-144.67;87.23
47522;BME280;32291;52.010;4.446;2022-07-15T03:35:35;78904.19;;;-144.67;87.24
47522;BME280;32291;52.010;4.446;2022-07-15T03:36:38;78904.19;;;-144.67;87.16
47522;BME280;32291;52.010;4.446;2022-07-15T03:37:40;78906.34;;;-144.67;87.22
47522;BME280;32291;52.010;4.446;2022-07-15T03:38:42;78904.19;;;-144.67;87.47
47522;BME280;32291;52.010;4.446;2022-07-15T03:39:44;78904.19;;;-144.67;87.54
47522;BME280;32291;52.010;4.446;2022-07-15T03:40:46;78904.19;;;-144.67;87.49
47522;BME280;32291;52.010;4.446;2022-07-15T03:41:48;78904.19;;;-144.67;87.53
47522;BME280;32291;52.010;4.446;2022-07-15T03:42:50;78904.19;;;-144.67;87.70
47522;BME280;32291;52.010;4.446;2022-07-15T03:43:52;78908.47;;;-144.67;87.68
47522;BME280;32291;52.010;4.446;2022-07-15T03:44:54;78904.19;;;-144.67;87.57
47522;BME280;32291;52.010;4.446;2022-07-15T03:45:56;78908.47;;;-144.67;87.50
47522;BME280;32291;52.010;4.446;2022-07-15T03:46:58;78908.47;;;-144.67;87.51
47522;BME280;32291;52.010;4.446;2022-07-15T03:48:00;78914.91;;;-144.67;87.89
47522;BME280;32291;52.010;4.446;2022-07-15T03:49:02;78912.75;;;-144.67;88.24
47522;BME280;32291;52.010;4.446;2022-07-15T03:50:05;78923.47;;;-144.67;88.09
47522;BME280;32291;52.010;4.446;2022-07-15T03:51:08;78917.03;;;-144.67;88.03
47522;BME280;32291;52.010;4.446;2022-07-15T03:52:10;78912.75;;;-144.67;88.03
47522;BME280;32291;52.010;4.446;2022-07-15T03:53:12;78914.91;;;-144.67;87.96
47522;BME280;32291;52.010;4.446;2022-07-15T03:54:14;78914.91;;;-144.67;88.01
47522;BME280;32291;52.010;4.446;2022-07-15T03:55:16;78919.19;;;-144.67;88.17
47522;BME280;32291;52.010;4.446;2022-07-15T03:56:18;78919.19;;;-144.67;88.09
47522;BME280;32291;52.010;4.446;2022-07-15T03:57:21;78914.91;;;-144.67;88.22
47522;BME280;32291;52.010;4.446;2022-07-15T03:58:26;78912.75;;;-144.67;88.04
47522;BME280;32291;52.010;4.446;2022-07-15T03:59:28;78912.75;;;-144.67;88.15
47522;BME280;32291;52.010;4.446;2022-07-15T04:00:30;78919.19;;;-144.67;88.05
47522;BME280;32291;52.010;4.446;2022-07-15T04:01:32;78910.63;;;-144.67;88.12
47522;BME280;32291;52.010;4.446;2022-07-15T04:02:35;78917.03;;;-144.67;87.88
47522;BME280;32291;52.010;4.446;2022-07-15T04:03:37;78910.63;;;-144.67;87.81
47522;BME280;32291;52.010;4.446;2022-07-15T04:04:39;78917.03;;;-144.67;87.70
47522;BME280;32291;52.010;4.446;2022-07-15T04:05:42;78910.63;;;-144.67;87.73
47522;BME280;32291;52.010;4.446;2022-07-15T04:06:44;78917.03;;;-144.67;87.84
47522;BME280;32291;52.010;4.446;2022-07-15T04:07:47;78910.63;;;-144.67;87.78
47522;BME280;32291;52.010;4.446;2022-07-15T04:08:49;78908.47;;;-144.67;87.96
47522;BME280;32291;52.010;4.446;2022-07-15T04:09:51;78908.47;;;-144.67;87.85
47522;BME280;32291;52.010;4.446;2022-07-15T04:10:55;78912.75;;;-144.67;88.09
47522;BME280;32291;52.010;4.446;2022-07-15T04:11:58;78910.63;;;-144.67;87.93
47522;BME280;32291;52.010;4.446;2022-07-15T04:13:00;78908.47;;;-144.67;88.19
47522;BME280;32291;52.010;4.446;2022-07-15T04:14:02;78912.75;;;-144.67;88.48
47522;BME280;32291;52.010;4.446;2022-07-15T04:15:06;78912.75;;;-144.67;88.82
47522;BME280;32291;52.010;4.446;2022-07-15T04:16:09;78914.91;;;-144.67;88.92
47522;BME280;32291;52.010;4.446;2022-07-15T04:17:13;78906.34;;;-144.67;88.90
47522;BME280;32291;52.010;4.446;2022-07-15T04:18:15;78921.31;;;-144.67;88.98
47522;BME280;32291;52.010;4.446;2022-07-15T04:19:17;78912.75;;;-144.67;89.00
47522;BME280;32291;52.010;4.446;2022-07-15T04:20:20;78912.75;;;-144.67;88.98
47522;BME280;32291;52.010;4.446;2022-07-15T04:21:22;78912.75;;;-144.67;89.28
47522;BME280;32291;52.010;4.446;2022-07-15T04:22:24;78914.91;;;-144.67;89.07
47522;BME280;32291;52.010;4.446;2022-07-15T04:23:26;78914.91;;;-144.67;89.28
47522;BME280;32291;52.010;4.446;2022-07-15T04:24:28;78912.75;;;-144.67;89.51
47522;BME280;32291;52.010;4.446;2022-07-15T04:25:30;78917.03;;;-144.67;89.46
47522;BME280;32291;52.010;4.446;2022-07-15T04:26:32;78919.19;;;-144.67;89.48
47522;BME280;32291;52.010;4.446;2022-07-15T04:27:34;78921.31;;;-144.67;89.75
47522;BME280;32291;52.010;4.446;2022-07-15T04:28:36;78917.03;;;-144.67;89.89
47522;BME280;32291;52.010;4.446;2022-07-15T04:29:38;78921.31;;;-144.67;89.78
47522;BME280;32291;52.010;4.446;2022-07-15T04:30:40;78921.31;;;-144.67;90.20
47522;BME280;32291;52.010;4.446;2022-07-15T04:31:42;78919.19;;;-144.67;90.03
47522;BME280;32291;52.010;4.446;2022-07-15T04:32:44;78917.03;;;-144.67;90.20
47522;BME280;32291;52.010;4.446;2022-07-15T04:33:46;78921.31;;;-144.67;90.22
47522;BME280;32291;52.010;4.446;2022-07-15T04:34:48;78919.19;;;-144.67;90.35
47522;BME280;32291;52.010;4.446;2022-07-15T04:35:50;78917.03;;;-144.67;90.47
47522;BME280;32291;52.010;4.446;2022-07-15T04:36:53;78912.75;;;-144.67;90.72
47522;BME280;32291;52.010;4.446;2022-07-15T04:37:55;78914.91;;;-144.67;90.72
47522;BME280;32291;52.010;4.446;2022-07-15T04:38:57;78917.03;;;-144.67;90.77
47522;BME280;32291;52.010;4.446;2022-07-15T04:39:59;78912.75;;;-144.67;90.55
47522;BME280;32291;52.010;4.446;2022-07-15T04:41:01;78912.75;;;-144.67;90.72
47522;BME280;32291;52.010;4.446;2022-07-15T04:42:03;78912.75;;;-144.67;90.81
47522;BME280;32291;52.010;4.446;2022-07-15T04:43:05;78910.63;;;-144.67;91.10
47522;BME280;32291;52.010;4.446;2022-07-15T04:44:08;78904.19;;;-144.67;90.87
47522;BME280;32291;52.010;4.446;2022-07-15T04:45:10;78906.34;;;-144.67;90.89
47522;BME280;32291;52.010;4.446;2022-07-15T04:46:12;78908.47;;;-144.67;90.76
47522;BME280;32291;52.010;4.446;2022-07-15T04:47:15;78908.47;;;-144.67;90.74
47522;BME280;32291;52.010;4.446;2022-07-15T04:48:17;78908.47;;;-144.67;91.07
47522;BME280;32291;52.010;4.446;2022-07-15T04:49:38;78908.47;;;-144.67;91.06
47522;BME280;32291;52.010;4.446;2022-07-15T04:50:59;78902.03;;;-144.67;91.09
47522;BME280;32291;52.010;4.446;2022-07-15T04:52:01;78904.19;;;-144.67;91.06
47522;BME280;32291;52.010;4.446;2022-07-15T04:53:03;78899.91;;;-144.67;91.06
47522;BME280;32291;52.010;4.446;2022-07-15T04:54:05;78904.19;;;-144.67;91.33
47522;BME280;32291;52.010;4.446;2022-07-15T04:55:08;78904.19;;;-144.67;91.13
47522;BME280;32291;52.010;4.446;2022-07-15T04:56:10;78904.19;;;-144.67;91.19
47522;BME280;32291;52.010;4.446;2022-07-15T04:57:12;78897.75;;;-144.67;90.89
47522;BME280;32291;52.010;4.446;2022-07-15T04:58:16;78895.63;;;-144.67;90.88
47522;BME280;32291;52.010;4.446;2022-07-15T04:59:17;78891.34;;;-144.67;90.82
47522;BME280;32291;52.010;4.446;2022-07-15T05:00:19;78882.78;;;-144.67;90.55
47522;BME280;32291;52.010;4.446;2022-07-15T05:01:22;78882.78;;;-144.67;90.62
47522;BME280;32291;52.010;4.446;2022-07-15T05:02:24;78874.22;;;-144.67;90.86
47522;BME280;32291;52.010;4.446;2022-07-15T05:03:27;78878.50;;;-144.67;90.74
47522;BME280;32291;52.010;4.446;2022-07-15T05:04:29;78880.63;;;-144.67;90.86
47522;BME280;32291;52.010;4.446;2022-07-15T05:05:31;78874.22;;;-144.67;90.69
47522;BME280;32291;52.010;4.446;2022-07-15T05:06:34;78865.66;;;-144.67;90.74
47522;BME280;32291;52.010;4.446;2022-07-15T05:07:36;78869.94;;;-144.67;90.60
47522;BME280;32291;52.010;4.446;2022-07-15T05:08:39;78874.22;;;-144.67;90.33
47522;BME280;32291;52.010;4.446;2022-07-15T05:09:41;78878.50;;;-144.67;90.23
47522;BME280;32291;52.010;4.446;2022-07-15T05:10:43;78872.06;;;-144.67;90.14
47522;BME280;32291;52.010;4.446;2022-07-15T05:11:45;78880.63;;;-144.67;90.04
47522;BME280;32291;52.010;4.446;2022-07-15T05:12:47;78869.94;;;-144.67;90.06
47522;BME280;32291;52.010;4.446;2022-07-15T05:13:48;78869.94;;;-144.67;90.09
47522;BME280;32291;52.010;4.446;2022-07-15T05:14:51;78867.78;;;-144.67;90.04
47522;BME280;32291;52.010;4.446;2022-07-15T05:15:53;78863.50;;;-144.67;90.16
47522;BME280;32291;52.010;4.446;2022-07-15T05:16:55;78857.06;;;-144.67;90.06
47522;BME280;32291;52.010;4.446;2022-07-15T05:17:57;78854.94;;;-144.67;90.08
47522;BME280;32291;52.010;4.446;2022-07-15T05:18:59;78852.78;;;-144.67;90.13
47522;BME280;32291;52.010;4.446;2022-07-15T05:20:01;78850.66;;;-144.67;89.96
47522;BME280;32291;52.010;4.446;2022-07-15T05:21:04;78846.38;;;-144.67;90.05
47522;BME280;32291;52.010;4.446;2022-07-15T05:22:06;78846.38;;;-144.67;90.09
47522;BME280;32291;52.010;4.446;2022-07-15T05:23:08;78842.09;;;-144.67;90.09
47522;BME280;32291;52.010;4.446;2022-07-15T05:24:10;78844.22;;;-144.67;90.01
47522;BME280;32291;52.010;4.446;2022-07-15T05:25:12;78831.38;;;-144.67;90.04